sensor_id;sensor_type;location;lat;lon;timestamp;temperature;humidity
71117;SHT31;58775;46.992;9.518;2023-04-29T00:01:14;12.25;98.27
71117;SHT31;58775;46.992;9.518;2023-04-29T00:03:15;12.29;98.67
71117;SHT31;58775;46.992;9.518;2023-04-29T00:05:17;12.33;98.35
71117;SHT31;58775;46.992;9.518;2023-04-29T00:10:59;12.32;98.70
71117;SHT31;58775;46.992;9.518;2023-04-29T00:13:00;12.32;97.92
71117;SHT31;58775;46.992;9.518;2023-04-29T00:15:16;12.19;98.93
71117;SHT31;58775;46.992;9.518;2023-04-29T00:17:17;12.22;98.52
71117;SHT31;58775;46.992;9.518;2023-04-29T00:19:18;12.15;98.72
71117;SHT31;58775;46.992;9.518;2023-04-29T00:21:27;12.28;97.89
71117;SHT31;58775;46.992;9.518;2023-04-29T00:23:28;12.36;97.45
71117;SHT31;58775;46.992;9.518;2023-04-29T00:25:50;12.46;96.78
71117;SHT31;58775;46.992;9.518;2023-04-29T00:27:53;12.51;96.44
71117;SHT31;58775;46.992;9.518;2023-04-29T00:30:18;12.53;96.86
71117;SHT31;58775;46.992;9.518;2023-04-29T00:32:19;12.63;96.57
71117;SHT31;58775;46.992;9.518;2023-04-29T00:37:42;12.36;97.90
71117;SHT31;58775;46.992;9.518;2023-04-29T00:46:07;12.46;97.87
71117;SHT31;58775;46.992;9.518;2023-04-29T01:08:44;12.36;97.20
71117;SHT31;58775;46.992;9.518;2023-04-29T01:34:09;12.43;95.85
71117;SHT31;58775;46.992;9.518;2023-04-29T02:16:35;12.02;98.81
71117;SHT31;58775;46.992;9.518;2023-04-29T02:18:40;11.92;98.88
71117;SHT31;58775;46.992;9.518;2023-04-29T02:24:34;11.99;98.55
71117;SHT31;58775;46.992;9.518;2023-04-29T02:33:21;12.20;97.35
71117;SHT31;58775;46.992;9.518;2023-04-29T02:35:34;12.13;98.05
71117;SHT31;58775;46.992;9.518;2023-04-29T02:57:56;12.20;98.04
71117;SHT31;58775;46.992;9.518;2023-04-29T02:59:58;12.03;98.61
71117;SHT31;58775;46.992;9.518;2023-04-29T03:01:59;11.99;99.25
71117;SHT31;58775;46.992;9.518;2023-04-29T03:04:01;12.05;97.93
71117;SHT31;58775;46.992;9.518;2023-04-29T03:16:09;12.15;97.28
71117;SHT31;58775;46.992;9.518;2023-04-29T03:18:13;12.19;96.78
71117;SHT31;58775;46.992;9.518;2023-04-29T03:20:52;12.26;96.46
71117;SHT31;58775;46.992;9.518;2023-04-29T03:26:15;12.15;97.37
71117;SHT31;58775;46.992;9.518;2023-04-29T03:28:34;12.09;97.74
71117;SHT31;58775;46.992;9.518;2023-04-29T03:30:35;12.06;98.31
71117;SHT31;58775;46.992;9.518;2023-04-29T03:32:37;12.09;97.41
71117;SHT31;58775;46.992;9.518;2023-04-29T03:34:38;12.02;98.06
71117;SHT31;58775;46.992;9.518;2023-04-29T03:40:24;11.95;97.82
71117;SHT31;58775;46.992;9.518;2023-04-29T03:42:50;11.95;98.19
71117;SHT31;58775;46.992;9.518;2023-04-29T04:04:51;11.78;98.68
71117;SHT31;58775;46.992;9.518;2023-04-29T04:06:55;11.86;98.08
71117;SHT31;58775;46.992;9.518;2023-04-29T04:12:23;11.75;99.31
71117;SHT31;58775;46.992;9.518;2023-04-29T04:17:47;11.92;97.76
71117;SHT31;58775;46.992;9.518;2023-04-29T04:23:10;11.99;97.52
71117;SHT31;58775;46.992;9.518;2023-04-29T04:25:12;11.83;98.28
71117;SHT31;58775;46.992;9.518;2023-04-29T04:27:13;11.77;98.38
71117;SHT31;58775;46.992;9.518;2023-04-29T04:33:00;11.78;98.55
71117;SHT31;58775;46.992;9.518;2023-04-29T04:35:02;11.77;99.06
71117;SHT31;58775;46.992;9.518;2023-04-29T04:43:49;11.92;97.29
71117;SHT31;58775;46.992;9.518;2023-04-29T04:59:35;11.88;98.23
71117;SHT31;58775;46.992;9.518;2023-04-29T05:01:37;11.92;98.17
71117;SHT31;58775;46.992;9.518;2023-04-29T05:03:38;11.91;98.66
71117;SHT31;58775;46.992;9.518;2023-04-29T05:08:23;11.83;97.93
71117;SHT31;58775;46.992;9.518;2023-04-29T05:10:28;11.83;98.20
71117;SHT31;58775;46.992;9.518;2023-04-29T05:12:33;11.79;98.57
71117;SHT31;58775;46.992;9.518;2023-04-29T05:14:36;11.91;98.77
71117;SHT31;58775;46.992;9.518;2023-04-29T05:16:37;12.03;98.23
71117;SHT31;58775;46.992;9.518;2023-04-29T05:18:39;12.09;98.19
71117;SHT31;58775;46.992;9.518;2023-04-29T05:20:47;12.20;97.11
71117;SHT31;58775;46.992;9.518;2023-04-29T05:23:19;12.25;96.94
71117;SHT31;58775;46.992;9.518;2023-04-29T05:25:31;12.25;96.94
71117;SHT31;58775;46.992;9.518;2023-04-29T05:27:33;12.32;95.87
71117;SHT31;58775;46.992;9.518;2023-04-29T05:29:34;12.44;95.80
71117;SHT31;58775;46.992;9.518;2023-04-29T05:31:36;12.25;97.42
71117;SHT31;58775;46.992;9.518;2023-04-29T05:33:38;12.25;97.18
71117;SHT31;58775;46.992;9.518;2023-04-29T05:35:39;12.16;97.14
71117;SHT31;58775;46.992;9.518;2023-04-29T05:37:41;12.32;97.21
71117;SHT31;58775;46.992;9.518;2023-04-29T05:39:53;12.33;96.75
71117;SHT31;58775;46.992;9.518;2023-04-29T05:41:55;12.39;96.02
71117;SHT31;58775;46.992;9.518;2023-04-29T05:44:10;12.33;96.05
71117;SHT31;58775;46.992;9.518;2023-04-29T05:46:11;12.26;97.28
71117;SHT31;58775;46.992;9.518;2023-04-29T05:48:12;12.41;95.88
71117;SHT31;58775;46.992;9.518;2023-04-29T05:50:14;12.26;96.36
71117;SHT31;58775;46.992;9.518;2023-04-29T05:52:15;12.10;97.91
71117;SHT31;58775;46.992;9.518;2023-04-29T05:54:20;12.05;98.13
71117;SHT31;58775;46.992;9.518;2023-04-29T05:56:22;12.08;98.48
71117;SHT31;58775;46.992;9.518;2023-04-29T05:58:23;12.13;98.13
71117;SHT31;58775;46.992;9.518;2023-04-29T06:00:25;12.20;98.16
71117;SHT31;58775;46.992;9.518;2023-04-29T06:02:32;12.26;97.22
71117;SHT31;58775;46.992;9.518;2023-04-29T06:04:34;12.23;98.18
71117;SHT31;58775;46.992;9.518;2023-04-29T06:06:56;12.33;98.25
71117;SHT31;58775;46.992;9.518;2023-04-29T06:18:50;12.73;97.58
71117;SHT31;58775;46.992;9.518;2023-04-29T06:20:51;12.81;97.64
71117;SHT31;58775;46.992;9.518;2023-04-29T06:22:53;12.85;97.77
71117;SHT31;58775;46.992;9.518;2023-04-29T06:24:55;12.84;97.85
71117;SHT31;58775;46.992;9.518;2023-04-29T06:27:12;12.88;97.94
71117;SHT31;58775;46.992;9.518;2023-04-29T06:29:13;13.00;96.86
71117;SHT31;58775;46.992;9.518;2023-04-29T06:31:15;13.21;96.44
71117;SHT31;58775;46.992;9.518;2023-04-29T06:33:17;13.14;94.72
71117;SHT31;58775;46.992;9.518;2023-04-29T06:35:18;13.45;93.17
71117;SHT31;58775;46.992;9.518;2023-04-29T06:37:39;13.45;91.71
71117;SHT31;58775;46.992;9.518;2023-04-29T06:40:02;13.65;90.71
71117;SHT31;58775;46.992;9.518;2023-04-29T06:42:22;13.80;91.62
71117;SHT31;58775;46.992;9.518;2023-04-29T06:44:58;13.77;88.87
71117;SHT31;58775;46.992;9.518;2023-04-29T06:47:29;13.93;89.30
71117;SHT31;58775;46.992;9.518;2023-04-29T06:50:00;14.09;88.12
71117;SHT31;58775;46.992;9.518;2023-04-29T06:52:01;14.04;87.81
71117;SHT31;58775;46.992;9.518;2023-04-29T06:54:03;14.03;88.01
71117;SHT31;58775;46.992;9.518;2023-04-29T06:56:04;14.10;87.45
71117;SHT31;58775;46.992;9.518;2023-04-29T06:58:06;14.17;87.93
71117;SHT31;58775;46.992;9.518;2023-04-29T07:00:08;14.16;87.06
71117;SHT31;58775;46.992;9.518;2023-04-29T07:02:09;14.31;85.93
71117;SHT31;58775;46.992;9.518;2023-04-29T07:04:11;14.27;87.00
71117;SHT31;58775;46.992;9.518;2023-04-29T07:06:13;14.40;86.76
71117;SHT31;58775;46.992;9.518;2023-04-29T07:08:14;14.30;87.23
71117;SHT31;58775;46.992;9.518;2023-04-29T07:10:16;14.21;89.68
71117;SHT31;58775;46.992;9.518;2023-04-29T07:12:17;14.37;88.36
71117;SHT31;58775;46.992;9.518;2023-04-29T07:14:19;14.28;89.65
71117;SHT31;58775;46.992;9.518;2023-04-29T07:16:22;14.34;91.55
71117;SHT31;58775;46.992;9.518;2023-04-29T07:18:26;14.79;88.44
71117;SHT31;58775;46.992;9.518;2023-04-29T07:20:27;14.99;86.71
71117;SHT31;58775;46.992;9.518;2023-04-29T07:22:29;15.27;84.62
71117;SHT31;58775;46.992;9.518;2023-04-29T07:24:30;15.49;83.90
71117;SHT31;58775;46.992;9.518;2023-04-29T07:26:35;15.68;82.19
71117;SHT31;58775;46.992;9.518;2023-04-29T07:28:36;15.80;83.18
71117;SHT31;58775;46.992;9.518;2023-04-29T07:30:37;16.15;83.59
71117;SHT31;58775;46.992;9.518;2023-04-29T07:32:39;16.58;82.19
71117;SHT31;58775;46.992;9.518;2023-04-29T07:34:41;16.86;81.08
71117;SHT31;58775;46.992;9.518;2023-04-29T07:36:43;17.09;79.34
71117;SHT31;58775;46.992;9.518;2023-04-29T07:38:46;17.31;78.95
71117;SHT31;58775;46.992;9.518;2023-04-29T07:40:48;17.37;78.86
71117;SHT31;58775;46.992;9.518;2023-04-29T07:42:50;17.62;79.45
71117;SHT31;58775;46.992;9.518;2023-04-29T07:44:52;17.81;77.38
71117;SHT31;58775;46.992;9.518;2023-04-29T07:47:02;17.85;78.19
71117;SHT31;58775;46.992;9.518;2023-04-29T07:49:07;17.92;77.18
71117;SHT31;58775;46.992;9.518;2023-04-29T07:51:12;18.22;77.37
71117;SHT31;58775;46.992;9.518;2023-04-29T07:53:16;18.29;76.96
71117;SHT31;58775;46.992;9.518;2023-04-29T07:55:18;18.42;77.14
71117;SHT31;58775;46.992;9.518;2023-04-29T07:57:19;18.49;77.06
71117;SHT31;58775;46.992;9.518;2023-04-29T07:59:20;18.33;75.88
71117;SHT31;58775;46.992;9.518;2023-04-29T08:01:22;18.46;76.15
71117;SHT31;58775;46.992;9.518;2023-04-29T08:03:23;18.65;76.00
71117;SHT31;58775;46.992;9.518;2023-04-29T08:05:25;18.85;76.98
71117;SHT31;58775;46.992;9.518;2023-04-29T08:07:26;19.52;76.45
71117;SHT31;58775;46.992;9.518;2023-04-29T08:09:27;19.89;74.72
71117;SHT31;58775;46.992;9.518;2023-04-29T08:11:29;20.47;74.32
71117;SHT31;58775;46.992;9.518;2023-04-29T08:13:30;20.61;70.58
71117;SHT31;58775;46.992;9.518;2023-04-29T08:15:31;20.87;69.49
71117;SHT31;58775;46.992;9.518;2023-04-29T08:17:33;21.26;68.11
71117;SHT31;58775;46.992;9.518;2023-04-29T08:19:34;21.00;67.26
71117;SHT31;58775;46.992;9.518;2023-04-29T08:21:37;21.05;66.94
71117;SHT31;58775;46.992;9.518;2023-04-29T08:23:39;21.30;67.37
71117;SHT31;58775;46.992;9.518;2023-04-29T08:25:41;21.54;68.16
71117;SHT31;58775;46.992;9.518;2023-04-29T08:27:43;21.61;67.26
71117;SHT31;58775;46.992;9.518;2023-04-29T08:29:45;21.98;64.94
71117;SHT31;58775;46.992;9.518;2023-04-29T08:31:47;22.42;65.87
71117;SHT31;58775;46.992;9.518;2023-04-29T08:33:48;22.82;63.95
71117;SHT31;58775;46.992;9.518;2023-04-29T08:35:57;23.19;63.62
71117;SHT31;58775;46.992;9.518;2023-04-29T08:37:59;22.66;64.98
71117;SHT31;58775;46.992;9.518;2023-04-29T08:40:00;23.39;63.14
71117;SHT31;58775;46.992;9.518;2023-04-29T08:42:09;23.84;63.70
71117;SHT31;58775;46.992;9.518;2023-04-29T08:44:11;24.00;59.92
71117;SHT31;58775;46.992;9.518;2023-04-29T08:46:12;24.12;60.12
71117;SHT31;58775;46.992;9.518;2023-04-29T08:48:15;24.30;58.45
71117;SHT31;58775;46.992;9.518;2023-04-29T08:50:17;24.02;59.38
71117;SHT31;58775;46.992;9.518;2023-04-29T08:52:18;24.32;57.38
71117;SHT31;58775;46.992;9.518;2023-04-29T08:54:19;24.53;57.41
71117;SHT31;58775;46.992;9.518;2023-04-29T08:56:21;24.83;57.60
71117;SHT31;58775;46.992;9.518;2023-04-29T08:58:24;24.76;56.90
71117;SHT31;58775;46.992;9.518;2023-04-29T09:00:26;24.15;56.38
71117;SHT31;58775;46.992;9.518;2023-04-29T09:02:28;24.73;56.20
71117;SHT31;58775;46.992;9.518;2023-04-29T09:04:40;25.13;57.49
71117;SHT31;58775;46.992;9.518;2023-04-29T09:06:47;25.41;56.99
71117;SHT31;58775;46.992;9.518;2023-04-29T09:08:48;25.33;57.38
71117;SHT31;58775;46.992;9.518;2023-04-29T09:10:53;23.94;61.46
71117;SHT31;58775;46.992;9.518;2023-04-29T09:12:56;24.97;59.27
71117;SHT31;58775;46.992;9.518;2023-04-29T09:15:01;25.90;56.28
71117;SHT31;58775;46.992;9.518;2023-04-29T09:17:04;25.85;56.47
71117;SHT31;58775;46.992;9.518;2023-04-29T09:19:06;26.15;53.55
71117;SHT31;58775;46.992;9.518;2023-04-29T09:21:19;26.67;53.83
71117;SHT31;58775;46.992;9.518;2023-04-29T09:23:36;26.16;56.77
71117;SHT31;58775;46.992;9.518;2023-04-29T09:25:37;25.49;58.28
71117;SHT31;58775;46.992;9.518;2023-04-29T09:27:38;26.16;55.02
71117;SHT31;58775;46.992;9.518;2023-04-29T09:29:59;27.01;52.44
71117;SHT31;58775;46.992;9.518;2023-04-29T09:32:17;27.24;48.64
71117;SHT31;58775;46.992;9.518;2023-04-29T09:34:33;27.50;51.29
71117;SHT31;58775;46.992;9.518;2023-04-29T09:36:45;26.71;51.55
71117;SHT31;58775;46.992;9.518;2023-04-29T09:38:53;26.76;51.07
71117;SHT31;58775;46.992;9.518;2023-04-29T09:40:55;27.19;48.73
71117;SHT31;58775;46.992;9.518;2023-04-29T09:42:57;27.14;52.25
71117;SHT31;58775;46.992;9.518;2023-04-29T09:44:59;27.38;50.91
71117;SHT31;58775;46.992;9.518;2023-04-29T09:47:06;27.52;49.65
71117;SHT31;58775;46.992;9.518;2023-04-29T09:49:27;26.80;48.98
71117;SHT31;58775;46.992;9.518;2023-04-29T09:51:29;27.48;45.71
71117;SHT31;58775;46.992;9.518;2023-04-29T09:53:32;27.50;47.47
71117;SHT31;58775;46.992;9.518;2023-04-29T09:56:04;27.38;46.58
71117;SHT31;58775;46.992;9.518;2023-04-29T09:58:06;27.52;45.92
71117;SHT31;58775;46.992;9.518;2023-04-29T10:00:07;27.34;45.74
71117;SHT31;58775;46.992;9.518;2023-04-29T10:08:58;26.85;46.74
71117;SHT31;58775;46.992;9.518;2023-04-29T10:11:01;26.63;47.54
71117;SHT31;58775;46.992;9.518;2023-04-29T10:18:16;27.36;47.14
71117;SHT31;58775;46.992;9.518;2023-04-29T10:54:07;26.88;51.60
71117;SHT31;58775;46.992;9.518;2023-04-29T10:56:09;26.57;53.13
71117;SHT31;58775;46.992;9.518;2023-04-29T10:58:42;27.96;45.69
71117;SHT31;58775;46.992;9.518;2023-04-29T11:01:08;27.65;46.73
71117;SHT31;58775;46.992;9.518;2023-04-29T11:06:07;27.80;44.75
71117;SHT31;58775;46.992;9.518;2023-04-29T11:10:12;27.87;45.85
71117;SHT31;58775;46.992;9.518;2023-04-29T11:12:19;28.18;46.39
71117;SHT31;58775;46.992;9.518;2023-04-29T11:14:36;28.55;42.84
71117;SHT31;58775;46.992;9.518;2023-04-29T11:56:00;28.37;40.70
71117;SHT31;58775;46.992;9.518;2023-04-29T11:58:04;28.30;42.15
71117;SHT31;58775;46.992;9.518;2023-04-29T12:00:12;28.61;42.63
71117;SHT31;58775;46.992;9.518;2023-04-29T12:19:05;29.60;40.42
71117;SHT31;58775;46.992;9.518;2023-04-29T12:24:37;29.18;35.92
71117;SHT31;58775;46.992;9.518;2023-04-29T12:30:00;28.38;40.20
71117;SHT31;58775;46.992;9.518;2023-04-29T17:43:48;18.39;64.04
71117;SHT31;58775;46.992;9.518;2023-04-29T17:45:50;18.14;67.48
71117;SHT31;58775;46.992;9.518;2023-04-29T17:47:52;18.10;65.15
71117;SHT31;58775;46.992;9.518;2023-04-29T17:49:54;17.98;65.52
71117;SHT31;58775;46.992;9.518;2023-04-29T17:51:55;17.92;67.25
71117;SHT31;58775;46.992;9.518;2023-04-29T17:53:58;17.91;67.40
71117;SHT31;58775;46.992;9.518;2023-04-29T17:56:00;18.03;63.41
71117;SHT31;58775;46.992;9.518;2023-04-29T17:58:01;17.96;63.24
71117;SHT31;58775;46.992;9.518;2023-04-29T18:00:04;18.01;64.18
71117;SHT31;58775;46.992;9.518;2023-04-29T18:02:08;17.86;63.59
71117;SHT31;58775;46.992;9.518;2023-04-29T18:04:09;17.95;61.99
71117;SHT31;58775;46.992;9.518;2023-04-29T18:06:11;18.08;61.62
71117;SHT31;58775;46.992;9.518;2023-04-29T18:08:12;17.96;62.77
71117;SHT31;58775;46.992;9.518;2023-04-29T18:10:13;17.92;62.85
71117;SHT31;58775;46.992;9.518;2023-04-29T18:12:15;17.93;63.99
71117;SHT31;58775;46.992;9.518;2023-04-29T18:14:16;17.85;62.22
71117;SHT31;58775;46.992;9.518;2023-04-29T18:16:18;17.79;62.07
71117;SHT31;58775;46.992;9.518;2023-04-29T18:18:19;17.70;64.01
71117;SHT31;58775;46.992;9.518;2023-04-29T18:20:20;17.83;63.81
71117;SHT31;58775;46.992;9.518;2023-04-29T18:22:22;17.71;62.65
71117;SHT31;58775;46.992;9.518;2023-04-29T18:24:24;17.72;63.45
71117;SHT31;58775;46.992;9.518;2023-04-29T18:26:26;17.72;63.35
71117;SHT31;58775;46.992;9.518;2023-04-29T18:28:28;17.45;64.82
71117;SHT31;58775;46.992;9.518;2023-04-29T18:30:30;17.44;65.05
71117;SHT31;58775;46.992;9.518;2023-04-29T18:32:32;17.37;65.46
71117;SHT31;58775;46.992;9.518;2023-04-29T18:34:34;17.28;66.58
71117;SHT31;58775;46.992;9.518;2023-04-29T18:36:35;17.20;66.86
71117;SHT31;58775;46.992;9.518;2023-04-29T18:38:37;17.10;67.69
71117;SHT31;58775;46.992;9.518;2023-04-29T18:40:39;17.13;67.25
71117;SHT31;58775;46.992;9.518;2023-04-29T18:42:41;16.80;66.88
71117;SHT31;58775;46.992;9.518;2023-04-29T18:44:43;16.79;67.01
71117;SHT31;58775;46.992;9.518;2023-04-29T18:46:45;16.62;68.10
71117;SHT31;58775;46.992;9.518;2023-04-29T18:48:47;16.44;68.81
71117;SHT31;58775;46.992;9.518;2023-04-29T18:50:52;16.18;68.58
71117;SHT31;58775;46.992;9.518;2023-04-29T18:52:54;16.24;68.36
71117;SHT31;58775;46.992;9.518;2023-04-29T18:54:56;16.21;68.94
71117;SHT31;58775;46.992;9.518;2023-04-29T18:56:57;16.11;70.39
71117;SHT31;58775;46.992;9.518;2023-04-29T18:58:59;16.04;70.91
71117;SHT31;58775;46.992;9.518;2023-04-29T19:01:02;16.08;70.87
71117;SHT31;58775;46.992;9.518;2023-04-29T19:03:05;16.09;70.75
71117;SHT31;58775;46.992;9.518;2023-04-29T19:05:06;16.09;70.16
71117;SHT31;58775;46.992;9.518;2023-04-29T19:07:12;15.84;69.09
71117;SHT31;58775;46.992;9.518;2023-04-29T19:09:13;15.80;69.91
71117;SHT31;58775;46.992;9.518;2023-04-29T19:11:15;16.00;69.96
71117;SHT31;58775;46.992;9.518;2023-04-29T19:13:16;15.93;69.96
71117;SHT31;58775;46.992;9.518;2023-04-29T19:15:18;15.97;70.10
71117;SHT31;58775;46.992;9.518;2023-04-29T19:17:20;15.94;69.69
71117;SHT31;58775;46.992;9.518;2023-04-29T19:19:21;15.90;68.69
71117;SHT31;58775;46.992;9.518;2023-04-29T19:21:23;15.77;71.70
71117;SHT31;58775;46.992;9.518;2023-04-29T19:23:25;15.87;71.17
71117;SHT31;58775;46.992;9.518;2023-04-29T19:25:26;15.78;69.75
71117;SHT31;58775;46.992;9.518;2023-04-29T19:27:28;15.81;70.99
71117;SHT31;58775;46.992;9.518;2023-04-29T19:29:29;15.76;72.30
71117;SHT31;58775;46.992;9.518;2023-04-29T19:31:30;15.53;72.08
71117;SHT31;58775;46.992;9.518;2023-04-29T19:33:32;15.61;70.99
71117;SHT31;58775;46.992;9.518;2023-04-29T19:35:33;15.54;73.14
71117;SHT31;58775;46.992;9.518;2023-04-29T19:37:35;15.60;70.62
71117;SHT31;58775;46.992;9.518;2023-04-29T19:39:37;15.42;75.09
71117;SHT31;58775;46.992;9.518;2023-04-29T19:41:38;15.60;69.17
71117;SHT31;58775;46.992;9.518;2023-04-29T19:43:42;15.61;72.86
71117;SHT31;58775;46.992;9.518;2023-04-29T19:45:43;15.49;74.74
71117;SHT31;58775;46.992;9.518;2023-04-29T19:47:45;15.58;73.77
71117;SHT31;58775;46.992;9.518;2023-04-29T19:49:48;15.63;75.43
71117;SHT31;58775;46.992;9.518;2023-04-29T19:51:50;15.71;74.43
71117;SHT31;58775;46.992;9.518;2023-04-29T19:53:53;15.61;75.42
71117;SHT31;58775;46.992;9.518;2023-04-29T19:55:56;15.46;77.18
71117;SHT31;58775;46.992;9.518;2023-04-29T19:57:57;15.33;76.59
71117;SHT31;58775;46.992;9.518;2023-04-29T20:00:00;15.23;78.16
71117;SHT31;58775;46.992;9.518;2023-04-29T20:02:02;15.25;77.63
71117;SHT31;58775;46.992;9.518;2023-04-29T20:04:04;15.18;77.79
71117;SHT31;58775;46.992;9.518;2023-04-29T20:06:06;15.12;78.61
71117;SHT31;58775;46.992;9.518;2023-04-29T20:08:07;15.03;79.58
71117;SHT31;58775;46.992;9.518;2023-04-29T20:10:09;15.09;79.03
71117;SHT31;58775;46.992;9.518;2023-04-29T20:12:12;15.29;77.84
71117;SHT31;58775;46.992;9.518;2023-04-29T20:14:13;15.33;77.67
71117;SHT31;58775;46.992;9.518;2023-04-29T20:16:15;15.07;78.85
71117;SHT31;58775;46.992;9.518;2023-04-29T20:18:17;15.19;79.30
71117;SHT31;58775;46.992;9.518;2023-04-29T20:20:18;15.27;79.05
71117;SHT31;58775;46.992;9.518;2023-04-29T20:22:20;15.40;78.10
71117;SHT31;58775;46.992;9.518;2023-04-29T20:24:21;15.15;80.37
71117;SHT31;58775;46.992;9.518;2023-04-29T20:26:23;15.07;81.35
71117;SHT31;58775;46.992;9.518;2023-04-29T20:28:24;15.03;81.39
71117;SHT31;58775;46.992;9.518;2023-04-29T20:30:26;14.82;80.90
71117;SHT31;58775;46.992;9.518;2023-04-29T20:32:27;14.76;81.44
71117;SHT31;58775;46.992;9.518;2023-04-29T20:34:29;14.81;82.08
71117;SHT31;58775;46.992;9.518;2023-04-29T20:36:32;14.78;81.98
71117;SHT31;58775;46.992;9.518;2023-04-29T20:38:34;14.74;82.25
71117;SHT31;58775;46.992;9.518;2023-04-29T20:40:37;14.72;82.93
71117;SHT31;58775;46.992;9.518;2023-04-29T20:42:40;14.75;82.69
71117;SHT31;58775;46.992;9.518;2023-04-29T20:44:42;14.76;81.79
71117;SHT31;58775;46.992;9.518;2023-04-29T20:46:43;14.64;82.51
71117;SHT31;58775;46.992;9.518;2023-04-29T20:48:46;14.71;82.34
71117;SHT31;58775;46.992;9.518;2023-04-29T20:50:47;14.60;82.73
71117;SHT31;58775;46.992;9.518;2023-04-29T20:52:49;14.76;81.65
71117;SHT31;58775;46.992;9.518;2023-04-29T20:54:51;14.75;82.48
71117;SHT31;58775;46.992;9.518;2023-04-29T20:56:53;14.78;81.71
71117;SHT31;58775;46.992;9.518;2023-04-29T20:58:54;14.78;81.99
71117;SHT31;58775;46.992;9.518;2023-04-29T21:00:58;14.47;82.88
71117;SHT31;58775;46.992;9.518;2023-04-29T21:03:00;14.30;83.06
71117;SHT31;58775;46.992;9.518;2023-04-29T21:05:01;14.31;83.18
71117;SHT31;58775;46.992;9.518;2023-04-29T21:07:03;14.30;84.27
71117;SHT31;58775;46.992;9.518;2023-04-29T21:09:07;14.31;84.95
71117;SHT31;58775;46.992;9.518;2023-04-29T21:11:08;14.31;83.60
71117;SHT31;58775;46.992;9.518;2023-04-29T21:13:10;14.44;82.55
71117;SHT31;58775;46.992;9.518;2023-04-29T21:15:12;14.38;84.12
71117;SHT31;58775;46.992;9.518;2023-04-29T21:17:13;14.27;84.32
71117;SHT31;58775;46.992;9.518;2023-04-29T21:19:14;14.25;84.66
71117;SHT31;58775;46.992;9.518;2023-04-29T21:21:15;14.28;84.34
71117;SHT31;58775;46.992;9.518;2023-04-29T21:23:16;14.28;83.97
71117;SHT31;58775;46.992;9.518;2023-04-29T21:25:17;14.34;83.16
71117;SHT31;58775;46.992;9.518;2023-04-29T21:27:19;14.37;83.96
71117;SHT31;58775;46.992;9.518;2023-04-29T21:29:21;14.40;84.09
71117;SHT31;58775;46.992;9.518;2023-04-29T21:31:22;14.28;84.40
71117;SHT31;58775;46.992;9.518;2023-04-29T21:33:24;14.31;84.35
71117;SHT31;58775;46.992;9.518;2023-04-29T21:35:25;14.45;83.60
71117;SHT31;58775;46.992;9.518;2023-04-29T21:37:30;14.45;84.37
71117;SHT31;58775;46.992;9.518;2023-04-29T21:39:31;14.60;82.91
71117;SHT31;58775;46.992;9.518;2023-04-29T21:41:35;14.48;84.05
71117;SHT31;58775;46.992;9.518;2023-04-29T21:43:38;14.58;83.18
71117;SHT31;58775;46.992;9.518;2023-04-29T21:45:41;14.65;82.74
71117;SHT31;58775;46.992;9.518;2023-04-29T21:47:42;14.71;82.07
71117;SHT31;58775;46.992;9.518;2023-04-29T21:49:44;14.55;83.11
71117;SHT31;58775;46.992;9.518;2023-04-29T21:51:45;14.34;84.43
71117;SHT31;58775;46.992;9.518;2023-04-29T21:53:48;14.31;84.35
71117;SHT31;58775;46.992;9.518;2023-04-29T21:55:49;14.30;84.57
71117;SHT31;58775;46.992;9.518;2023-04-29T21:57:50;14.24;85.57
71117;SHT31;58775;46.992;9.518;2023-04-29T21:59:52;14.23;85.23
71117;SHT31;58775;46.992;9.518;2023-04-29T22:01:53;14.25;85.04
71117;SHT31;58775;46.992;9.518;2023-04-29T22:04:00;14.28;85.55
71117;SHT31;58775;46.992;9.518;2023-04-29T22:06:01;14.17;85.07
71117;SHT31;58775;46.992;9.518;2023-04-29T22:08:03;14.07;85.97
71117;SHT31;58775;46.992;9.518;2023-04-29T22:10:07;14.09;86.51
71117;SHT31;58775;46.992;9.518;2023-04-29T22:12:09;14.09;86.73
71117;SHT31;58775;46.992;9.518;2023-04-29T22:14:10;14.06;86.12
71117;SHT31;58775;46.992;9.518;2023-04-29T22:16:11;14.00;85.58
71117;SHT31;58775;46.992;9.518;2023-04-29T22:18:12;13.94;86.96
71117;SHT31;58775;46.992;9.518;2023-04-29T22:20:14;13.89;86.49
71117;SHT31;58775;46.992;9.518;2023-04-29T22:22:16;13.93;85.26
71117;SHT31;58775;46.992;9.518;2023-04-29T22:24:17;14.09;83.89
71117;SHT31;58775;46.992;9.518;2023-04-29T22:26:19;14.13;83.42
71117;SHT31;58775;46.992;9.518;2023-04-29T22:28:20;14.14;84.49
71117;SHT31;58775;46.992;9.518;2023-04-29T22:30:21;14.13;85.12
71117;SHT31;58775;46.992;9.518;2023-04-29T22:32:23;14.27;84.46
71117;SHT31;58775;46.992;9.518;2023-04-29T22:34:24;14.37;83.82
71117;SHT31;58775;46.992;9.518;2023-04-29T22:36:25;14.34;84.03
71117;SHT31;58775;46.992;9.518;2023-04-29T22:38:27;14.25;85.38
71117;SHT31;58775;46.992;9.518;2023-04-29T22:40:29;14.21;85.09
71117;SHT31;58775;46.992;9.518;2023-04-29T22:42:31;14.18;85.31
71117;SHT31;58775;46.992;9.518;2023-04-29T22:44:32;14.13;85.55
71117;SHT31;58775;46.992;9.518;2023-04-29T22:46:33;14.12;85.85
71117;SHT31;58775;46.992;9.518;2023-04-29T22:48:35;14.03;86.55
71117;SHT31;58775;46.992;9.518;2023-04-29T22:50:37;14.00;86.59
71117;SHT31;58775;46.992;9.518;2023-04-29T22:52:39;14.02;85.82
71117;SHT31;58775;46.992;9.518;2023-04-29T22:54:40;14.12;85.26
71117;SHT31;58775;46.992;9.518;2023-04-29T22:56:41;14.06;85.22
71117;SHT31;58775;46.992;9.518;2023-04-29T22:58:42;14.13;85.40
71117;SHT31;58775;46.992;9.518;2023-04-29T23:00:45;14.13;85.04
71117;SHT31;58775;46.992;9.518;2023-04-29T23:02:47;14.07;84.30
71117;SHT31;58775;46.992;9.518;2023-04-29T23:04:48;14.09;84.63
71117;SHT31;58775;46.992;9.518;2023-04-29T23:06:49;14.06;85.27
71117;SHT31;58775;46.992;9.518;2023-04-29T23:08:52;14.07;85.45
71117;SHT31;58775;46.992;9.518;2023-04-29T23:10:53;13.99;85.82
71117;SHT31;58775;46.992;9.518;2023-04-29T23:12:55;14.04;84.79
71117;SHT31;58775;46.992;9.518;2023-04-29T23:14:56;14.03;85.41
71117;SHT31;58775;46.992;9.518;2023-04-29T23:16:57;14.07;85.52
71117;SHT31;58775;46.992;9.518;2023-04-29T23:18:58;14.10;85.18
71117;SHT31;58775;46.992;9.518;2023-04-29T23:21:00;14.17;84.75
71117;SHT31;58775;46.992;9.518;2023-04-29T23:23:01;14.07;86.05
71117;SHT31;58775;46.992;9.518;2023-04-29T23:25:03;13.96;86.93
71117;SHT31;58775;46.992;9.518;2023-04-29T23:27:05;13.93;86.41
71117;SHT31;58775;46.992;9.518;2023-04-29T23:29:06;13.94;85.97
71117;SHT31;58775;46.992;9.518;2023-04-29T23:31:08;13.91;86.60
71117;SHT31;58775;46.992;9.518;2023-04-29T23:33:10;13.89;86.56
71117;SHT31;58775;46.992;9.518;2023-04-29T23:35:11;13.80;86.39
71117;SHT31;58775;46.992;9.518;2023-04-29T23:37:12;13.76;86.77
71117;SHT31;58775;46.992;9.518;2023-04-29T23:39:14;13.77;85.98